UAL1239 KORD-KLAX
Flight info
| Callsign | UAL1239 |
|---|---|
| Flight time | N/A |
| Altitude | 28000 |
| Route | PEKUE PIPPN ROTTN LEFAM Q90 DAAYE/N0462F300 Q90 DNERO ANJLL4 |
| Aircraft | B739/M-SDE2E3FGHIRWXY/LB1 |
Departure
| Time | 2026-05-05 21:32 |
|---|---|
| Airport | Chicago O'Hare International Airport (KORD) |
Arrival
| Time | N/A |
|---|---|
| Airport | Los Angeles International Airport (KLAX) |
| Time | Latitude | Longitude | Altitude | Speed | Heading |
|---|---|---|---|---|---|
| 2026-05-05 21:05 | 41.97931 | -87.90730 | 668 ft | 0 kts | 99° |
| 2026-05-05 21:20 | 41.97933 | -87.90741 | 668 ft | 2 kts | 103° |
| 2026-05-05 21:20 | 41.97937 | -87.90762 | 666 ft | 2 kts | 109° |
| 2026-05-05 21:20 | 41.97944 | -87.90782 | 668 ft | 2 kts | 126° |
| 2026-05-05 21:20 | 41.97955 | -87.90797 | 666 ft | 2 kts | 163° |
| 2026-05-05 21:21 | 41.97970 | -87.90799 | 668 ft | 1 kts | 188° |
| 2026-05-05 21:21 | 41.97972 | -87.90799 | 668 ft | 0 kts | 189° |
| 2026-05-05 21:24 | 41.97942 | -87.90806 | 668 ft | 9 kts | 187° |
| 2026-05-05 21:24 | 41.97864 | -87.90821 | 668 ft | 12 kts | 189° |
| 2026-05-05 21:24 | 41.97786 | -87.90841 | 668 ft | 11 kts | 190° |
| 2026-05-05 21:25 | 41.97709 | -87.90858 | 668 ft | 11 kts | 188° |
| 2026-05-05 21:25 | 41.97634 | -87.90873 | 668 ft | 11 kts | 188° |
| 2026-05-05 21:25 | 41.97565 | -87.90904 | 667 ft | 10 kts | 224° |
| 2026-05-05 21:25 | 41.97535 | -87.90991 | 668 ft | 10 kts | 248° |
| 2026-05-05 21:26 | 41.97529 | -87.91014 | 668 ft | 0 kts | 253° |
| 2026-05-05 21:26 | 41.97514 | -87.91045 | 667 ft | 7 kts | 216° |
| 2026-05-05 21:26 | 41.97449 | -87.91020 | 668 ft | 14 kts | 142° |
| 2026-05-05 21:27 | 41.97368 | -87.90917 | 668 ft | 16 kts | 125° |
| 2026-05-05 21:27 | 41.97290 | -87.90816 | 668 ft | 16 kts | 140° |
| 2026-05-05 21:27 | 41.97220 | -87.90706 | 668 ft | 15 kts | 115° |
| 2026-05-05 21:27 | 41.97206 | -87.90570 | 668 ft | 15 kts | 89° |
| 2026-05-05 21:28 | 41.97208 | -87.90437 | 668 ft | 14 kts | 90° |
| 2026-05-05 21:28 | 41.97208 | -87.90310 | 668 ft | 13 kts | 90° |
| 2026-05-05 21:28 | 41.97207 | -87.90189 | 668 ft | 13 kts | 90° |
| 2026-05-05 21:28 | 41.97169 | -87.90137 | 666 ft | 13 kts | 165° |
| 2026-05-05 21:29 | 41.97083 | -87.90131 | 668 ft | 12 kts | 177° |
| 2026-05-05 21:29 | 41.97037 | -87.90049 | 668 ft | 12 kts | 93° |
| 2026-05-05 21:29 | 41.97041 | -87.89904 | 668 ft | 12 kts | 90° |
| 2026-05-05 21:29 | 41.97042 | -87.89797 | 669 ft | 11 kts | 90° |
| 2026-05-05 21:30 | 41.97042 | -87.89693 | 669 ft | 11 kts | 90° |
| 2026-05-05 21:30 | 41.97024 | -87.89598 | 667 ft | 11 kts | 122° |
| 2026-05-05 21:30 | 41.97017 | -87.89585 | 668 ft | 0 kts | 129° |
| 2026-05-05 21:30 | 41.97006 | -87.89572 | 669 ft | 7 kts | 144° |
| 2026-05-05 21:31 | 41.96930 | -87.89565 | 671 ft | 13 kts | 208° |
| 2026-05-05 21:31 | 41.96905 | -87.89604 | 671 ft | 0 kts | 260° |
| 2026-05-05 21:31 | 41.96904 | -87.89617 | 671 ft | 13 kts | 264° |
| 2026-05-05 21:31 | 41.96903 | -87.90354 | 666 ft | 104 kts | 270° |
| 2026-05-05 21:32 | 41.96902 | -87.91126 | 669 ft | 140 kts | 270° |
| 2026-05-05 21:32 | 41.96904 | -87.92610 | 834 ft | 170 kts | 270° |
| 2026-05-05 21:32 | 41.96867 | -87.94207 | 1521 ft | 175 kts | 263° |
| 2026-05-05 21:32 | 41.96424 | -87.95741 | 2192 ft | 183 kts | 241° |
| 2026-05-05 21:33 | 41.95792 | -87.97261 | 2840 ft | 184 kts | 244° |
| 2026-05-05 21:33 | 41.95249 | -87.98740 | 3596 ft | 174 kts | 252° |
| 2026-05-05 21:33 | 41.94902 | -88.00347 | 3917 ft | 188 kts | 258° |
| 2026-05-05 21:33 | 41.94583 | -88.02147 | 4131 ft | 208 kts | 259° |
| 2026-05-05 21:34 | 41.94231 | -88.04136 | 4334 ft | 228 kts | 259° |
| 2026-05-05 21:34 | 41.93863 | -88.06237 | 4753 ft | 235 kts | 258° |
| 2026-05-05 21:34 | 41.93466 | -88.08464 | 5072 ft | 252 kts | 258° |
| 2026-05-05 21:34 | 41.93044 | -88.10790 | 5665 ft | 258 kts | 258° |
| 2026-05-05 21:35 | 41.92620 | -88.13097 | 6614 ft | 253 kts | 258° |
| 2026-05-05 21:35 | 41.92196 | -88.15396 | 7323 ft | 254 kts | 257° |
| 2026-05-05 21:35 | 41.91773 | -88.17665 | 8057 ft | 254 kts | 257° |
| 2026-05-05 21:35 | 41.91343 | -88.19958 | 8810 ft | 253 kts | 256° |
| 2026-05-05 21:36 | 41.90912 | -88.22255 | 9561 ft | 254 kts | 256° |
| 2026-05-05 21:36 | 41.90481 | -88.24541 | 10279 ft | 254 kts | 256° |
| 2026-05-05 21:36 | 41.90032 | -88.26919 | 10527 ft | 272 kts | 256° |
| 2026-05-05 21:36 | 41.89551 | -88.29464 | 10681 ft | 292 kts | 256° |
| 2026-05-05 21:37 | 41.89035 | -88.32188 | 10832 ft | 311 kts | 256° |
| 2026-05-05 21:37 | 41.88487 | -88.35073 | 10968 ft | 328 kts | 256° |
| 2026-05-05 21:37 | 41.87906 | -88.38126 | 11099 ft | 345 kts | 256° |
| 2026-05-05 21:37 | 41.87309 | -88.41263 | 11362 ft | 356 kts | 256° |
| 2026-05-05 21:38 | 41.86690 | -88.44508 | 11811 ft | 361 kts | 256° |
| 2026-05-05 21:38 | 41.86065 | -88.47777 | 12371 ft | 363 kts | 256° |
| 2026-05-05 21:38 | 41.85439 | -88.51052 | 12975 ft | 363 kts | 256° |
| 2026-05-05 21:38 | 41.84808 | -88.54347 | 13479 ft | 367 kts | 256° |
| 2026-05-05 21:39 | 41.84169 | -88.57673 | 13944 ft | 369 kts | 256° |
| 2026-05-05 21:39 | 41.83527 | -88.61010 | 14453 ft | 370 kts | 256° |
| 2026-05-05 21:39 | 41.82883 | -88.64354 | 14969 ft | 371 kts | 256° |
| 2026-05-05 21:39 | 41.82236 | -88.67707 | 15446 ft | 372 kts | 256° |
| 2026-05-05 21:40 | 41.81586 | -88.71073 | 15913 ft | 374 kts | 256° |
| 2026-05-05 21:40 | 41.80940 | -88.74410 | 16365 ft | 375 kts | 256° |
| 2026-05-05 21:40 | 41.80283 | -88.77797 | 16808 ft | 377 kts | 256° |
| 2026-05-05 21:40 | 41.79637 | -88.81208 | 17271 ft | 378 kts | 258° |
| 2026-05-05 21:41 | 41.79136 | -88.84671 | 17684 ft | 379 kts | 260° |
| 2026-05-05 21:41 | 41.78681 | -88.88157 | 18118 ft | 381 kts | 261° |
| 2026-05-05 21:41 | 41.78235 | -88.91662 | 18487 ft | 382 kts | 261° |
| 2026-05-05 21:41 | 41.77787 | -88.95177 | 18841 ft | 384 kts | 260° |
| 2026-05-05 21:42 | 41.77331 | -88.98708 | 19191 ft | 385 kts | 260° |
| 2026-05-05 21:42 | 41.76870 | -89.02247 | 19540 ft | 387 kts | 260° |
| 2026-05-05 21:42 | 41.76408 | -89.05756 | 19904 ft | 388 kts | 259° |
| 2026-05-05 21:42 | 41.75936 | -89.09317 | 20274 ft | 389 kts | 259° |
| 2026-05-05 21:43 | 41.75459 | -89.12898 | 20613 ft | 391 kts | 259° |
| 2026-05-05 21:43 | 41.74979 | -89.16486 | 20969 ft | 392 kts | 259° |
| 2026-05-05 21:43 | 41.74497 | -89.20084 | 21314 ft | 394 kts | 259° |
| 2026-05-05 21:43 | 41.74011 | -89.23702 | 21643 ft | 395 kts | 259° |
| 2026-05-05 21:44 | 41.73523 | -89.27326 | 21951 ft | 397 kts | 258° |
| 2026-05-05 21:44 | 41.73031 | -89.30969 | 22255 ft | 398 kts | 258° |
| 2026-05-05 21:44 | 41.72537 | -89.34622 | 22551 ft | 400 kts | 258° |
| 2026-05-05 21:44 | 41.72047 | -89.38235 | 22834 ft | 401 kts | 258° |
| 2026-05-05 21:45 | 41.71547 | -89.41912 | 23124 ft | 402 kts | 258° |
| 2026-05-05 21:45 | 41.71045 | -89.45596 | 23402 ft | 404 kts | 258° |
| 2026-05-05 21:45 | 41.70538 | -89.49302 | 23637 ft | 405 kts | 258° |
| 2026-05-05 21:45 | 41.70030 | -89.53011 | 23905 ft | 405 kts | 258° |
| 2026-05-05 21:46 | 41.69523 | -89.56707 | 24211 ft | 404 kts | 258° |
| 2026-05-05 21:46 | 41.69014 | -89.60407 | 24500 ft | 404 kts | 258° |
| 2026-05-05 21:46 | 41.68505 | -89.64102 | 24778 ft | 404 kts | 258° |
| 2026-05-05 21:46 | 41.68002 | -89.67739 | 25045 ft | 404 kts | 258° |
| 2026-05-05 21:47 | 41.67491 | -89.71427 | 25382 ft | 402 kts | 258° |
| 2026-05-05 21:47 | 41.66967 | -89.75074 | 25818 ft | 397 kts | 257° |
| 2026-05-05 21:47 | 41.66405 | -89.78664 | 26323 ft | 392 kts | 257° |
| 2026-05-05 21:47 | 41.65829 | -89.82204 | 26837 ft | 387 kts | 257° |
| 2026-05-05 21:48 | 41.65254 | -89.85696 | 27308 ft | 383 kts | 257° |
| 2026-05-05 21:48 | 41.64687 | -89.89145 | 27767 ft | 379 kts | 257° |
| 2026-05-05 21:48 | 41.64124 | -89.92571 | 28241 ft | 375 kts | 257° |
| 2026-05-05 21:48 | 41.63570 | -89.95959 | 28739 ft | 371 kts | 257° |
| 2026-05-05 21:49 | 41.63023 | -89.99308 | 29255 ft | 366 kts | 257° |
| 2026-05-05 21:49 | 41.62490 | -90.02570 | 29766 ft | 362 kts | 257° |
| 2026-05-05 21:49 | 41.61957 | -90.05839 | 30221 ft | 358 kts | 257° |
| 2026-05-05 21:49 | 41.61428 | -90.09074 | 30603 ft | 355 kts | 258° |
| 2026-05-05 21:50 | 41.60902 | -90.12285 | 30919 ft | 353 kts | 258° |
| 2026-05-05 21:50 | 41.60376 | -90.15492 | 31095 ft | 355 kts | 258° |
| 2026-05-05 21:50 | 41.59306 | -90.22001 | 31275 ft | 361 kts | 258° |
| 2026-05-05 21:51 | 41.58766 | -90.25278 | 31426 ft | 361 kts | 258° |
| 2026-05-05 21:51 | 41.58225 | -90.28549 | 31654 ft | 360 kts | 258° |
| 2026-05-05 21:51 | 41.57687 | -90.31800 | 31902 ft | 357 kts | 258° |
| 2026-05-05 21:51 | 41.57156 | -90.34999 | 31893 ft | 358 kts | 258° |
| 2026-05-05 21:52 | 41.56074 | -90.41511 | 32056 ft | 359 kts | 258° |
| 2026-05-05 21:52 | 41.55534 | -90.44747 | 32370 ft | 355 kts | 258° |
| 2026-05-05 21:52 | 41.54999 | -90.47949 | 32683 ft | 352 kts | 258° |
| 2026-05-05 21:53 | 41.54465 | -90.51140 | 32884 ft | 352 kts | 258° |
| 2026-05-05 21:53 | 41.53931 | -90.54322 | 33040 ft | 352 kts | 258° |
| 2026-05-05 21:53 | 41.53397 | -90.57505 | 33242 ft | 351 kts | 258° |
| 2026-05-05 21:53 | 41.52871 | -90.60629 | 33462 ft | 349 kts | 259° |
| 2026-05-05 21:54 | 41.52341 | -90.63772 | 33654 ft | 348 kts | 259° |
| 2026-05-05 21:54 | 41.51808 | -90.66925 | 33818 ft | 346 kts | 259° |
| 2026-05-05 21:54 | 41.51281 | -90.70041 | 33895 ft | 344 kts | 259° |
| 2026-05-05 21:55 | 41.50225 | -90.76267 | 33918 ft | 345 kts | 259° |
| 2026-05-05 21:55 | 41.49163 | -90.82508 | 33921 ft | 346 kts | 259° |
| 2026-05-05 21:56 | 41.48102 | -90.88721 | 33923 ft | 346 kts | 259° |
| 2026-05-05 21:56 | 41.47030 | -90.94977 | 33924 ft | 346 kts | 259° |
| 2026-05-05 21:57 | 41.45954 | -91.01232 | 33922 ft | 346 kts | 259° |
| 2026-05-05 21:57 | 41.44873 | -91.07499 | 33911 ft | 347 kts | 258° |
| 2026-05-05 21:58 | 41.43796 | -91.13713 | 33916 ft | 346 kts | 258° |
| 2026-05-05 21:58 | 41.42709 | -91.19971 | 33920 ft | 346 kts | 258° |
| 2026-05-05 21:59 | 41.41619 | -91.26219 | 33922 ft | 346 kts | 258° |
| 2026-05-05 21:59 | 41.40526 | -91.32467 | 33914 ft | 346 kts | 258° |
| 2026-05-05 22:00 | 41.39431 | -91.38700 | 33924 ft | 346 kts | 258° |
| 2026-05-05 22:00 | 41.38340 | -91.44895 | 33923 ft | 346 kts | 258° |
| 2026-05-05 22:01 | 41.37238 | -91.51128 | 33917 ft | 346 kts | 258° |
| 2026-05-05 22:01 | 41.36134 | -91.57354 | 33908 ft | 346 kts | 258° |
| 2026-05-05 22:02 | 41.35046 | -91.63466 | 33906 ft | 346 kts | 258° |
| 2026-05-05 22:02 | 41.33933 | -91.69699 | 33905 ft | 346 kts | 258° |
| 2026-05-05 22:03 | 41.32823 | -91.75895 | 33909 ft | 347 kts | 258° |
| 2026-05-05 22:03 | 41.31702 | -91.82132 | 33908 ft | 347 kts | 258° |
| 2026-05-05 22:04 | 41.30577 | -91.88370 | 33918 ft | 347 kts | 258° |
| 2026-05-05 22:04 | 41.29448 | -91.94605 | 33907 ft | 347 kts | 258° |
| 2026-05-05 22:05 | 41.28319 | -92.00826 | 33915 ft | 346 kts | 258° |